Cleveland, TN

1:43 PM EDT on June 02, 2015 (GMT -0400)
Lovell | | Change Station
CLOSE
Current Station
Airport
Location: Chattanooga,
Elevation: 689 ft
Nearby Weather Stations

Elev 689 ft 35.04 °N, 85.20 °W | Updated 50 minutes ago

Mostly Cloudy
Mostly Cloudy
78 °F
Feels Like 78 °F
N
7
Wind Variable Wind from WNW

Today
High -- | Low -- °F
--% Chance of Precip.
Yesterday
High -- | Low -- °F
Precip. -- in
6:26 AM 8:49 PM
Full, 100% visible
Pressure 30.01 in
Visibility 10.0 miles
Clouds Scattered Clouds 3500 ft
Scattered Clouds 4500 ft
Scattered Clouds 6000 ft
Mostly Cloudy 25000 ft
Dew Point 62 °F
Humidity 58%
Rainfall 0.00 in
Snow Depth Not available.
UV 6 out of 12
Pollen 5.40 out of 12
Air Quality Not available.
Flu Activity Sporadic
METAR KCHA 021653Z 29006KT 10SM SCT035 SCT045 SCT060 BKN250 26/17 A3003 RMK AO2 SLP161 TCU DSNT N T02560167

More Conditions Fewer Conditions

Pressure 30.01 in
Visibility 10.0 miles
Clouds Scattered Clouds 3500 ft
Scattered Clouds 4500 ft
Scattered Clouds 6000 ft
Mostly Cloudy 25000 ft
Dew Point 62 °F
Humidity 58%
Rainfall 0.00 in
Snow Depth Not available.
UV 6 out of 12
Pollen 5.40 out of 12
Air Quality Not available.
Flu Activity Sporadic
METAR KCHA 021653Z 29006KT 10SM SCT035 SCT045 SCT060 BKN250 26/17 A3003 RMK AO2 SLP161 TCU DSNT N T02560167

More Conditions Fewer Conditions

10-Day Weather Forecast

Almanac

Astronomy

Jun. 02, 2015 Rise Set
Actual Time
Civil Twilight
Nautical Twilight
Astronomical Twilight
Moon
Length of Visible Light
Length of Day
Tomorrow will be .
, % of the Moon is Illuminated

Today's Extremes

State Highs State Lows

Community

WunderPhotos

Upload Photos

1,825,988 photos uploaded!

WunderBlogs® & News

Nearby

Air Quality

  Air Quality AQ Index Pollutant
Not available.

Snow Depth

Station Depth Elevation

Earthquake Activity

City Distance Mag. Time & Date
Minimum magnitude displayed is 2.5.

Coastal Water Temperatures

Place Temperature

Stations

Nearby Weather Stations

Station Location Temp. Windchill Dew Point Humidity Wind Precip. Elev Updated Type